sensor_id;sensor_type;location;lat;lon;timestamp;pressure;altitude;pressure_sealevel;temperature;humidity
74075;BME280;62428;51.412;5.432;2023-07-20T00:02:09;101271.38;;;17.53;82.69
74075;BME280;62428;51.412;5.432;2023-07-20T00:04:34;101271.69;;;17.52;83.07
74075;BME280;62428;51.412;5.432;2023-07-20T00:06:59;101269.97;;;17.47;82.88
74075;BME280;62428;51.412;5.432;2023-07-20T00:09:28;101272.41;;;17.40;82.73
74075;BME280;62428;51.412;5.432;2023-07-20T00:11:53;101266.84;;;17.36;82.98
74075;BME280;62428;51.412;5.432;2023-07-20T00:14:19;101266.38;;;17.34;82.78
74075;BME280;62428;51.412;5.432;2023-07-20T00:16:50;101264.63;;;17.29;82.78
74075;BME280;62428;51.412;5.432;2023-07-20T00:19:27;101268.78;;;17.27;82.39
74075;BME280;62428;51.412;5.432;2023-07-20T00:21:53;101265.13;;;17.23;82.61
74075;BME280;62428;51.412;5.432;2023-07-20T00:24:19;101271.53;;;17.18;82.69
74075;BME280;62428;51.412;5.432;2023-07-20T00:26:44;101272.19;;;17.15;82.76
74075;BME280;62428;51.412;5.432;2023-07-20T00:29:10;101270.59;;;17.14;82.62
74075;BME280;62428;51.412;5.432;2023-07-20T00:31:35;101262.94;;;17.07;82.95
74075;BME280;62428;51.412;5.432;2023-07-20T00:34:03;101270.63;;;17.05;82.78
74075;BME280;62428;51.412;5.432;2023-07-20T00:36:28;101261.19;;;17.03;82.67
74075;BME280;62428;51.412;5.432;2023-07-20T00:38:53;101267.13;;;17.05;82.52
74075;BME280;62428;51.412;5.432;2023-07-20T00:41:19;101267.59;;;17.07;82.86
74075;BME280;62428;51.412;5.432;2023-07-20T00:43:44;101270.47;;;17.10;82.34
74075;BME280;62428;51.412;5.432;2023-07-20T00:46:10;101270.00;;;17.08;82.45
74075;BME280;62428;51.412;5.432;2023-07-20T00:48:36;101272.34;;;17.10;82.18
74075;BME280;62428;51.412;5.432;2023-07-20T00:51:01;101268.84;;;17.09;82.80
74075;BME280;62428;51.412;5.432;2023-07-20T00:53:27;101263.75;;;17.08;82.08
74075;BME280;62428;51.412;5.432;2023-07-20T00:55:53;101271.25;;;17.11;81.96
74075;BME280;62428;51.412;5.432;2023-07-20T00:58:19;101266.59;;;17.12;82.10
74075;BME280;62428;51.412;5.432;2023-07-20T01:00:44;101269.00;;;17.13;81.91
74075;BME280;62428;51.412;5.432;2023-07-20T01:03:10;101266.59;;;17.12;81.93
74075;BME280;62428;51.412;5.432;2023-07-20T01:05:54;101267.75;;;17.10;81.15
74075;BME280;62428;51.412;5.432;2023-07-20T01:08:45;101272.72;;;17.08;81.79
74075;BME280;62428;51.412;5.432;2023-07-20T01:11:15;101277.97;;;17.05;81.72
74075;BME280;62428;51.412;5.432;2023-07-20T01:13:42;101273.34;;;17.05;81.71
74075;BME280;62428;51.412;5.432;2023-07-20T01:16:08;101274.13;;;17.06;82.06
74075;BME280;62428;51.412;5.432;2023-07-20T01:18:34;101274.44;;;17.04;81.98
74075;BME280;62428;51.412;5.432;2023-07-20T01:21:04;101282.13;;;17.02;81.82
74075;BME280;62428;51.412;5.432;2023-07-20T01:31:45;101277.53;;;16.94;82.59
74075;BME280;62428;51.412;5.432;2023-07-20T01:34:12;101278.97;;;16.91;82.94
74075;BME280;62428;51.412;5.432;2023-07-20T01:36:42;101275.78;;;16.89;82.84
74075;BME280;62428;51.412;5.432;2023-07-20T01:39:08;101270.69;;;16.88;82.47
74075;BME280;62428;51.412;5.432;2023-07-20T01:41:34;101267.63;;;16.81;82.96
74075;BME280;62428;51.412;5.432;2023-07-20T01:44:00;101266.53;;;16.82;82.96
74075;BME280;62428;51.412;5.432;2023-07-20T01:46:26;101269.56;;;16.80;82.98
74075;BME280;62428;51.412;5.432;2023-07-20T01:48:52;101277.38;;;16.82;82.78
74075;BME280;62428;51.412;5.432;2023-07-20T01:51:17;101267.16;;;16.79;82.93
74075;BME280;62428;51.412;5.432;2023-07-20T01:53:43;101277.84;;;16.75;82.91
74075;BME280;62428;51.412;5.432;2023-07-20T01:56:08;101282.19;;;16.76;83.29
74075;BME280;62428;51.412;5.432;2023-07-20T01:58:34;101275.16;;;16.75;83.19
74075;BME280;62428;51.412;5.432;2023-07-20T02:01:00;101283.28;;;16.75;83.74
74075;BME280;62428;51.412;5.432;2023-07-20T02:03:26;101282.19;;;16.76;83.55
74075;BME280;62428;51.412;5.432;2023-07-20T02:05:52;101280.25;;;16.77;83.38
74075;BME280;62428;51.412;5.432;2023-07-20T02:08:17;101279.47;;;16.76;83.63
74075;BME280;62428;51.412;5.432;2023-07-20T02:10:46;101287.91;;;16.75;83.71
74075;BME280;62428;51.412;5.432;2023-07-20T02:13:12;101283.28;;;16.75;83.89
74075;BME280;62428;51.412;5.432;2023-07-20T02:15:37;101284.09;;;16.76;83.71
74075;BME280;62428;51.412;5.432;2023-07-20T02:18:02;101282.19;;;16.76;84.19
74075;BME280;62428;51.412;5.432;2023-07-20T02:20:28;101281.84;;;16.78;84.12
74075;BME280;62428;51.412;5.432;2023-07-20T02:22:54;101288.06;;;16.78;84.22
74075;BME280;62428;51.412;5.432;2023-07-20T02:25:19;101288.53;;;16.80;84.47
74075;BME280;62428;51.412;5.432;2023-07-20T02:27:44;101289.00;;;16.82;84.80
74075;BME280;62428;51.412;5.432;2023-07-20T02:30:10;101295.25;;;16.83;84.86
74075;BME280;62428;51.412;5.432;2023-07-20T02:32:36;101286.31;;;16.82;85.10
74075;BME280;62428;51.412;5.432;2023-07-20T02:35:02;101294.94;;;16.84;85.02
74075;BME280;62428;51.412;5.432;2023-07-20T02:37:29;101299.56;;;16.84;85.27
74075;BME280;62428;51.412;5.432;2023-07-20T02:39:54;101299.25;;;16.85;85.47
74075;BME280;62428;51.412;5.432;2023-07-20T02:42:20;101296.88;;;16.84;85.73
74075;BME280;62428;51.412;5.432;2023-07-20T02:44:48;101296.06;;;16.83;85.88
74075;BME280;62428;51.412;5.432;2023-07-20T02:47:13;101301.97;;;16.85;86.00
74075;BME280;62428;51.412;5.432;2023-07-20T02:49:39;101295.41;;;16.86;86.08
74075;BME280;62428;51.412;5.432;2023-07-20T02:52:04;101299.25;;;16.85;86.36
74075;BME280;62428;51.412;5.432;2023-07-20T02:54:30;101307.88;;;16.87;86.46
74075;BME280;62428;51.412;5.432;2023-07-20T02:56:56;101307.88;;;16.87;86.65
74075;BME280;62428;51.412;5.432;2023-07-20T02:59:21;101324.47;;;16.86;86.78
74075;BME280;62428;51.412;5.432;2023-07-20T03:01:47;101320.19;;;16.85;87.19
74075;BME280;62428;51.412;5.432;2023-07-20T03:04:12;101322.53;;;16.86;87.07
74075;BME280;62428;51.412;5.432;2023-07-20T03:06:37;101325.59;;;16.85;87.24
74075;BME280;62428;51.412;5.432;2023-07-20T03:09:03;101320.50;;;16.83;87.49
74075;BME280;62428;51.412;5.432;2023-07-20T03:11:29;101328.63;;;16.83;87.39
74075;BME280;62428;51.412;5.432;2023-07-20T03:13:55;101331.81;;;16.85;87.36
74075;BME280;62428;51.412;5.432;2023-07-20T03:16:23;101325.25;;;16.86;87.64
74075;BME280;62428;51.412;5.432;2023-07-20T03:18:48;101338.03;;;16.86;87.53
74075;BME280;62428;51.412;5.432;2023-07-20T03:21:14;101338.81;;;16.86;87.67
74075;BME280;62428;51.412;5.432;2023-07-20T03:23:40;101336.47;;;16.85;87.93
74075;BME280;62428;51.412;5.432;2023-07-20T03:26:06;101334.53;;;16.85;87.82
74075;BME280;62428;51.412;5.432;2023-07-20T03:28:35;101335.63;;;16.84;87.85
74075;BME280;62428;51.412;5.432;2023-07-20T03:31:01;101333.25;;;16.83;88.00
74075;BME280;62428;51.412;5.432;2023-07-20T03:33:27;101334.53;;;16.85;88.40
74075;BME280;62428;51.412;5.432;2023-07-20T03:35:54;101327.81;;;16.83;88.32
74075;BME280;62428;51.412;5.432;2023-07-20T03:38:20;101336.28;;;16.81;88.16
74075;BME280;62428;51.412;5.432;2023-07-20T03:43:18;101344.72;;;16.80;88.21
74075;BME280;62428;51.412;5.432;2023-07-20T03:45:44;101341.53;;;16.78;88.41
74075;BME280;62428;51.412;5.432;2023-07-20T03:48:11;101349.22;;;16.76;88.43
74075;BME280;62428;51.412;5.432;2023-07-20T03:50:36;101342.19;;;16.75;88.04
74075;BME280;62428;51.412;5.432;2023-07-20T03:53:02;101348.25;;;16.71;88.21
74075;BME280;62428;51.412;5.432;2023-07-20T03:55:27;101352.88;;;16.71;88.44
74075;BME280;62428;51.412;5.432;2023-07-20T03:57:53;101349.69;;;16.69;88.44
74075;BME280;62428;51.412;5.432;2023-07-20T04:00:18;101353.97;;;16.70;88.53
74075;BME280;62428;51.412;5.432;2023-07-20T04:02:44;101351.28;;;16.70;88.64
74075;BME280;62428;51.412;5.432;2023-07-20T04:05:09;101354.81;;;16.70;88.69
74075;BME280;62428;51.412;5.432;2023-07-20T04:07:35;101349.84;;;16.72;88.84
74075;BME280;62428;51.412;5.432;2023-07-20T04:10:00;101357.66;;;16.74;88.82
74075;BME280;62428;51.412;5.432;2023-07-20T04:12:26;101353.03;;;16.75;88.31
74075;BME280;62428;51.412;5.432;2023-07-20T04:14:51;101352.25;;;16.74;87.79
74075;BME280;62428;51.412;5.432;2023-07-20T04:17:17;101352.25;;;16.74;87.89
74075;BME280;62428;51.412;5.432;2023-07-20T04:19:43;101354.97;;;16.74;88.31
74075;BME280;62428;51.412;5.432;2023-07-20T04:22:08;101354.13;;;16.73;87.88
74075;BME280;62428;51.412;5.432;2023-07-20T04:24:33;101358.31;;;16.71;88.36
74075;BME280;62428;51.412;5.432;2023-07-20T04:26:59;101358.31;;;16.71;88.11
74075;BME280;62428;51.412;5.432;2023-07-20T04:29:24;101364.50;;;16.71;88.14
74075;BME280;62428;51.412;5.432;2023-07-20T04:31:50;101366.91;;;16.73;88.23
74075;BME280;62428;51.412;5.432;2023-07-20T04:34:15;101366.91;;;16.73;88.13
74075;BME280;62428;51.412;5.432;2023-07-20T04:36:40;101367.69;;;16.73;88.30
74075;BME280;62428;51.412;5.432;2023-07-20T04:39:06;101368.19;;;16.76;88.27
74075;BME280;62428;51.412;5.432;2023-07-20T04:41:33;101364.34;;;16.77;87.86
74075;BME280;62428;51.412;5.432;2023-07-20T04:43:58;101371.88;;;16.80;87.52
74075;BME280;62428;51.412;5.432;2023-07-20T04:46:24;101371.03;;;16.79;86.47
74075;BME280;62428;51.412;5.432;2023-07-20T04:48:49;101369.78;;;16.77;86.12
74075;BME280;62428;51.412;5.432;2023-07-20T04:51:14;101361.50;;;16.73;86.50
74075;BME280;62428;51.412;5.432;2023-07-20T04:53:42;101359.91;;;16.72;86.39
74075;BME280;62428;51.412;5.432;2023-07-20T04:56:08;101367.22;;;16.71;86.30
74075;BME280;62428;51.412;5.432;2023-07-20T04:58:33;101364.34;;;16.68;86.40
74075;BME280;62428;51.412;5.432;2023-07-20T05:00:58;101357.81;;;16.69;86.75
74075;BME280;62428;51.412;5.432;2023-07-20T05:03:24;101360.22;;;16.70;86.42
74075;BME280;62428;51.412;5.432;2023-07-20T05:05:49;101353.97;;;16.70;86.19
74075;BME280;62428;51.412;5.432;2023-07-20T05:08:15;101358.13;;;16.67;86.33
74075;BME280;62428;51.412;5.432;2023-07-20T05:10:41;101358.63;;;16.69;86.18
74075;BME280;62428;51.412;5.432;2023-07-20T05:13:06;101354.63;;;16.67;86.12
74075;BME280;62428;51.412;5.432;2023-07-20T05:15:35;101362.13;;;16.70;85.88
74075;BME280;62428;51.412;5.432;2023-07-20T05:18:00;101363.72;;;16.71;85.84
74075;BME280;62428;51.412;5.432;2023-07-20T05:20:26;101370.09;;;16.75;85.73
74075;BME280;62428;51.412;5.432;2023-07-20T05:22:52;101366.13;;;16.72;84.59
74075;BME280;62428;51.412;5.432;2023-07-20T05:25:18;101361.50;;;16.73;84.35
74075;BME280;62428;51.412;5.432;2023-07-20T05:27:45;101357.66;;;16.74;84.61
74075;BME280;62428;51.412;5.432;2023-07-20T05:30:11;101357.81;;;16.78;84.58
74075;BME280;62428;51.412;5.432;2023-07-20T05:32:37;101365.31;;;16.81;84.16
74075;BME280;62428;51.412;5.432;2023-07-20T05:35:02;101370.41;;;16.82;84.05
74075;BME280;62428;51.412;5.432;2023-07-20T05:37:28;101380.66;;;16.85;83.99
74075;BME280;62428;51.412;5.432;2023-07-20T05:39:53;101380.97;;;16.93;84.23
74075;BME280;62428;51.412;5.432;2023-07-20T05:42:19;101380.66;;;16.94;82.39
74075;BME280;62428;51.412;5.432;2023-07-20T05:44:44;101389.28;;;16.96;83.35
74075;BME280;62428;51.412;5.432;2023-07-20T05:47:09;101389.91;;;17.02;83.36
74075;BME280;62428;51.412;5.432;2023-07-20T05:49:35;101394.69;;;17.05;83.27
74075;BME280;62428;51.412;5.432;2023-07-20T05:52:01;101397.69;;;17.12;83.00
74075;BME280;62428;51.412;5.432;2023-07-20T05:54:27;101391.63;;;17.15;83.08
74075;BME280;62428;51.412;5.432;2023-07-20T05:56:53;101398.81;;;17.11;81.69
74075;BME280;62428;51.412;5.432;2023-07-20T05:59:18;101396.28;;;17.06;82.42
74075;BME280;62428;51.412;5.432;2023-07-20T06:01:45;101394.19;;;17.03;82.54
74075;BME280;62428;51.412;5.432;2023-07-20T06:04:14;101387.34;;;17.05;82.86
74075;BME280;62428;51.412;5.432;2023-07-20T06:06:39;101389.91;;;17.10;81.98
74075;BME280;62428;51.412;5.432;2023-07-20T06:09:05;101387.81;;;17.16;81.61
74075;BME280;62428;51.412;5.432;2023-07-20T06:11:32;101396.25;;;17.23;82.24
74075;BME280;62428;51.412;5.432;2023-07-20T06:13:58;101398.13;;;17.32;81.40
74075;BME280;62428;51.412;5.432;2023-07-20T06:16:24;101407.38;;;17.39;80.88
74075;BME280;62428;51.412;5.432;2023-07-20T06:18:49;101411.84;;;17.44;80.68
74075;BME280;62428;51.412;5.432;2023-07-20T06:21:15;101407.69;;;17.46;79.87
74075;BME280;62428;51.412;5.432;2023-07-20T06:23:40;101406.88;;;17.46;79.68
74075;BME280;62428;51.412;5.432;2023-07-20T06:26:06;101410.59;;;17.41;79.89
74075;BME280;62428;51.412;5.432;2023-07-20T06:28:33;101408.50;;;17.38;80.04
74075;BME280;62428;51.412;5.432;2023-07-20T06:31:02;101407.56;;;17.34;80.10
74075;BME280;62428;51.412;5.432;2023-07-20T06:33:27;101409.47;;;17.34;80.28
74075;BME280;62428;51.412;5.432;2023-07-20T06:35:53;101407.41;;;17.31;79.20
74075;BME280;62428;51.412;5.432;2023-07-20T06:38:19;101404.19;;;17.37;79.05
74075;BME280;62428;51.412;5.432;2023-07-20T06:40:47;101401.63;;;17.41;79.10
74075;BME280;62428;51.412;5.432;2023-07-20T06:43:13;101406.25;;;17.40;79.28
74075;BME280;62428;51.412;5.432;2023-07-20T06:45:38;101400.69;;;17.37;78.38
74075;BME280;62428;51.412;5.432;2023-07-20T06:48:04;101402.63;;;17.36;76.94
74075;BME280;62428;51.412;5.432;2023-07-20T06:50:30;101400.50;;;17.42;78.32
74075;BME280;62428;51.412;5.432;2023-07-20T06:52:55;101405.28;;;17.45;78.44
74075;BME280;62428;51.412;5.432;2023-07-20T06:55:20;101410.25;;;17.43;77.32
74075;BME280;62428;51.412;5.432;2023-07-20T06:57:46;101410.09;;;17.39;77.06
74075;BME280;62428;51.412;5.432;2023-07-20T07:00:12;101412.66;;;17.36;76.26
74075;BME280;62428;51.412;5.432;2023-07-20T07:02:37;101418.44;;;17.34;77.87
74075;BME280;62428;51.412;5.432;2023-07-20T07:05:03;101421.94;;;17.35;77.93
74075;BME280;62428;51.412;5.432;2023-07-20T07:07:29;101421.16;;;17.34;77.66
74075;BME280;62428;51.412;5.432;2023-07-20T07:09:54;101413.63;;;17.31;77.74
74075;BME280;62428;51.412;5.432;2023-07-20T07:12:20;101423.38;;;17.32;78.94
74075;BME280;62428;51.412;5.432;2023-07-20T07:14:45;101420.66;;;17.32;78.64
74075;BME280;62428;51.412;5.432;2023-07-20T07:17:10;101423.72;;;17.31;78.42
74075;BME280;62428;51.412;5.432;2023-07-20T07:19:36;101429.28;;;17.34;78.95
74075;BME280;62428;51.412;5.432;2023-07-20T07:22:03;101431.34;;;17.37;76.90
74075;BME280;62428;51.412;5.432;2023-07-20T07:24:28;101425.59;;;17.39;75.60
74075;BME280;62428;51.412;5.432;2023-07-20T07:26:59;101425.44;;;17.44;76.64
74075;BME280;62428;51.412;5.432;2023-07-20T07:29:24;101422.53;;;17.49;76.58
74075;BME280;62428;51.412;5.432;2023-07-20T07:31:50;101420.34;;;17.81;77.24
74075;BME280;62428;51.412;5.432;2023-07-20T07:34:15;101433.00;;;18.15;75.83
74075;BME280;62428;51.412;5.432;2023-07-20T07:36:40;101430.19;;;18.54;71.75
74075;BME280;62428;51.412;5.432;2023-07-20T07:39:06;101428.75;;;18.98;71.56
74075;BME280;62428;51.412;5.432;2023-07-20T07:41:31;101429.78;;;19.39;69.22
74075;BME280;62428;51.412;5.432;2023-07-20T07:43:56;101430.53;;;19.73;67.74
74075;BME280;62428;51.412;5.432;2023-07-20T07:46:22;101435.78;;;20.03;67.19
74075;BME280;62428;51.412;5.432;2023-07-20T07:48:47;101433.38;;;20.26;65.79
74075;BME280;62428;51.412;5.432;2023-07-20T07:51:13;101438.88;;;20.54;66.08
74075;BME280;62428;51.412;5.432;2023-07-20T07:53:39;101438.13;;;20.82;62.45
74075;BME280;62428;51.412;5.432;2023-07-20T07:56:07;101440.59;;;21.00;64.00
74075;BME280;62428;51.412;5.432;2023-07-20T07:58:32;101443.91;;;21.21;62.52
74075;BME280;62428;51.412;5.432;2023-07-20T08:00:58;101438.53;;;21.25;61.12
74075;BME280;62428;51.412;5.432;2023-07-20T08:03:23;101441.91;;;21.34;60.39
74075;BME280;62428;51.412;5.432;2023-07-20T08:05:49;101444.09;;;21.44;59.92
74075;BME280;62428;51.412;5.432;2023-07-20T08:08:15;101442.53;;;21.59;59.41
74075;BME280;62428;51.412;5.432;2023-07-20T08:10:40;101446.44;;;21.74;58.29
74075;BME280;62428;51.412;5.432;2023-07-20T08:13:05;101444.41;;;21.71;58.43
74075;BME280;62428;51.412;5.432;2023-07-20T08:15:31;101454.19;;;21.56;60.11
74075;BME280;62428;51.412;5.432;2023-07-20T08:17:56;101450.13;;;21.50;59.35
74075;BME280;62428;51.412;5.432;2023-07-20T08:20:22;101449.78;;;21.67;59.06
74075;BME280;62428;51.412;5.432;2023-07-20T08:22:52;101456.22;;;21.75;57.12
74075;BME280;62428;51.412;5.432;2023-07-20T08:25:18;101458.19;;;21.75;57.46
74075;BME280;62428;51.412;5.432;2023-07-20T08:27:43;101454.47;;;21.51;58.23
74075;BME280;62428;51.412;5.432;2023-07-20T08:30:11;101451.28;;;21.21;58.28
74075;BME280;62428;51.412;5.432;2023-07-20T08:32:36;101442.78;;;20.94;59.06
74075;BME280;62428;51.412;5.432;2023-07-20T08:35:02;101451.91;;;20.73;60.11
74075;BME280;62428;51.412;5.432;2023-07-20T08:37:28;101452.03;;;20.77;60.63
74075;BME280;62428;51.412;5.432;2023-07-20T08:39:53;101449.72;;;20.91;60.31
74075;BME280;62428;51.412;5.432;2023-07-20T08:42:18;101443.41;;;21.03;60.25
74075;BME280;62428;51.412;5.432;2023-07-20T08:44:44;101447.81;;;21.08;59.36
74075;BME280;62428;51.412;5.432;2023-07-20T08:47:13;101444.88;;;21.29;60.31
74075;BME280;62428;51.412;5.432;2023-07-20T08:49:39;101441.41;;;21.60;59.66
74075;BME280;62428;51.412;5.432;2023-07-20T08:52:05;101445.81;;;21.81;56.45
74075;BME280;62428;51.412;5.432;2023-07-20T08:54:31;101442.91;;;21.89;57.19
74075;BME280;62428;51.412;5.432;2023-07-20T08:57:04;101442.81;;;22.02;54.52
74075;BME280;62428;51.412;5.432;2023-07-20T08:59:30;101441.81;;;22.10;52.97
74075;BME280;62428;51.412;5.432;2023-07-20T09:01:58;101451.78;;;22.18;54.61
74075;BME280;62428;51.412;5.432;2023-07-20T09:04:24;101440.94;;;22.06;55.17
74075;BME280;62428;51.412;5.432;2023-07-20T09:06:50;101449.38;;;21.81;53.69
74075;BME280;62428;51.412;5.432;2023-07-20T09:09:16;101441.50;;;21.64;54.77
74075;BME280;62428;51.412;5.432;2023-07-20T09:11:41;101432.88;;;21.78;53.52
74075;BME280;62428;51.412;5.432;2023-07-20T09:14:08;101433.28;;;21.96;51.30
74075;BME280;62428;51.412;5.432;2023-07-20T09:16:54;101431.75;;;22.14;55.04
74075;BME280;62428;51.412;5.432;2023-07-20T09:19:20;101433.25;;;22.27;50.95
74075;BME280;62428;51.412;5.432;2023-07-20T09:21:47;101434.91;;;22.32;49.69
74075;BME280;62428;51.412;5.432;2023-07-20T09:24:13;101441.13;;;22.49;51.22
74075;BME280;62428;51.412;5.432;2023-07-20T09:26:45;101435.09;;;22.59;49.26
74075;BME280;62428;51.412;5.432;2023-07-20T09:29:13;101435.06;;;22.39;50.88
74075;BME280;62428;51.412;5.432;2023-07-20T09:31:39;101424.25;;;22.11;50.89
74075;BME280;62428;51.412;5.432;2023-07-20T09:34:06;101429.56;;;21.88;52.41
74075;BME280;62428;51.412;5.432;2023-07-20T09:36:38;101424.94;;;21.73;53.49
74075;BME280;62428;51.412;5.432;2023-07-20T09:39:04;101428.88;;;21.59;54.39
74075;BME280;62428;51.412;5.432;2023-07-20T09:41:41;101430.00;;;21.42;53.35
74075;BME280;62428;51.412;5.432;2023-07-20T09:44:10;101419.50;;;21.44;54.21
74075;BME280;62428;51.412;5.432;2023-07-20T09:46:49;101415.28;;;21.63;54.18
74075;BME280;62428;51.412;5.432;2023-07-20T09:49:17;101418.91;;;21.83;53.47
74075;BME280;62428;51.412;5.432;2023-07-20T09:51:44;101417.41;;;21.69;52.20
74075;BME280;62428;51.412;5.432;2023-07-20T09:54:10;101405.25;;;21.51;52.15
74075;BME280;62428;51.412;5.432;2023-07-20T09:56:37;101407.06;;;21.31;52.42
74075;BME280;62428;51.412;5.432;2023-07-20T09:59:04;101410.41;;;21.24;53.65
74075;BME280;62428;51.412;5.432;2023-07-20T10:01:29;101416.59;;;21.21;53.14
74075;BME280;62428;51.412;5.432;2023-07-20T10:03:58;101413.41;;;21.19;53.61
74075;BME280;62428;51.412;5.432;2023-07-20T10:06:28;101421.00;;;21.42;53.49
74075;BME280;62428;51.412;5.432;2023-07-20T10:08:59;101409.59;;;21.52;50.91
74075;BME280;62428;51.412;5.432;2023-07-20T10:11:28;101413.38;;;21.63;51.59
74075;BME280;62428;51.412;5.432;2023-07-20T10:13:58;101416.81;;;21.60;51.23
74075;BME280;62428;51.412;5.432;2023-07-20T10:16:34;101408.56;;;21.44;52.76
74075;BME280;62428;51.412;5.432;2023-07-20T10:19:11;101405.13;;;21.31;53.09
74075;BME280;62428;51.412;5.432;2023-07-20T10:21:40;101403.00;;;21.25;55.18
74075;BME280;62428;51.412;5.432;2023-07-20T10:24:07;101401.06;;;21.25;53.41
74075;BME280;62428;51.412;5.432;2023-07-20T10:26:34;101397.63;;;21.28;53.24
74075;BME280;62428;51.412;5.432;2023-07-20T10:29:00;101398.34;;;21.41;53.85
74075;BME280;62428;51.412;5.432;2023-07-20T10:31:27;101392.72;;;21.66;53.16
74075;BME280;62428;51.412;5.432;2023-07-20T10:33:56;101388.38;;;21.97;50.55
74075;BME280;62428;51.412;5.432;2023-07-20T10:36:25;101392.56;;;22.10;50.20
74075;BME280;62428;51.412;5.432;2023-07-20T10:38:54;101390.19;;;22.08;51.56
74075;BME280;62428;51.412;5.432;2023-07-20T10:41:21;101390.56;;;22.07;50.70
74075;BME280;62428;51.412;5.432;2023-07-20T10:43:48;101390.25;;;22.12;49.86
74075;BME280;62428;51.412;5.432;2023-07-20T10:46:14;101393.72;;;22.09;48.88
74075;BME280;62428;51.412;5.432;2023-07-20T10:48:58;101387.09;;;22.10;50.59
74075;BME280;62428;51.412;5.432;2023-07-20T10:51:24;101393.66;;;22.05;48.97
74075;BME280;62428;51.412;5.432;2023-07-20T10:53:50;101386.78;;;21.96;49.59
74075;BME280;62428;51.412;5.432;2023-07-20T10:56:20;101384.16;;;21.83;50.13
74075;BME280;62428;51.412;5.432;2023-07-20T10:58:46;101381.09;;;21.69;49.89
74075;BME280;62428;51.412;5.432;2023-07-20T11:01:17;101386.66;;;21.57;51.03
74075;BME280;62428;51.412;5.432;2023-07-20T11:03:43;101384.53;;;21.50;52.07
74075;BME280;62428;51.412;5.432;2023-07-20T11:09:12;101379.78;;;21.47;52.88
74075;BME280;62428;51.412;5.432;2023-07-20T11:11:49;101373.75;;;21.41;52.35
74075;BME280;62428;51.412;5.432;2023-07-20T11:14:25;101374.97;;;21.44;53.80
74075;BME280;62428;51.412;5.432;2023-07-20T11:16:52;101372.81;;;21.49;53.21
74075;BME280;62428;51.412;5.432;2023-07-20T11:19:24;101370.25;;;21.57;53.26
74075;BME280;62428;51.412;5.432;2023-07-20T11:21:55;101371.56;;;21.63;54.25
74075;BME280;62428;51.412;5.432;2023-07-20T11:24:22;101365.31;;;21.62;53.20
74075;BME280;62428;51.412;5.432;2023-07-20T11:26:52;101362.47;;;21.59;53.22
74075;BME280;62428;51.412;5.432;2023-07-20T11:29:22;101360.44;;;21.56;54.00
74075;BME280;62428;51.412;5.432;2023-07-20T11:31:49;101363.81;;;21.49;53.25
74075;BME280;62428;51.412;5.432;2023-07-20T11:34:19;101362.00;;;21.41;53.68
74075;BME280;62428;51.412;5.432;2023-07-20T11:36:46;101363.88;;;21.37;53.50
74075;BME280;62428;51.412;5.432;2023-07-20T11:39:14;101368.13;;;21.34;54.23
74075;BME280;62428;51.412;5.432;2023-07-20T11:41:44;101366.16;;;21.35;53.59
74075;BME280;62428;51.412;5.432;2023-07-20T11:44:11;101362.94;;;21.45;52.53
74075;BME280;62428;51.412;5.432;2023-07-20T11:46:39;101356.22;;;21.74;50.62
74075;BME280;62428;51.412;5.432;2023-07-20T11:49:05;101353.25;;;21.99;50.06
74075;BME280;62428;51.412;5.432;2023-07-20T11:51:31;101350.28;;;22.23;51.18
74075;BME280;62428;51.412;5.432;2023-07-20T11:53:57;101363.81;;;22.36;49.59
74075;BME280;62428;51.412;5.432;2023-07-20T11:56:24;101358.13;;;22.44;48.92
74075;BME280;62428;51.412;5.432;2023-07-20T11:58:50;101355.63;;;22.55;48.33
74075;BME280;62428;51.412;5.432;2023-07-20T12:01:17;101350.66;;;22.61;49.51
74075;BME280;62428;51.412;5.432;2023-07-20T12:03:43;101351.00;;;22.59;51.60
74075;BME280;62428;51.412;5.432;2023-07-20T12:06:09;101352.72;;;22.68;48.57
74075;BME280;62428;51.412;5.432;2023-07-20T12:08:42;101350.84;;;22.72;48.25
74075;BME280;62428;51.412;5.432;2023-07-20T12:11:08;101353.03;;;22.62;50.39
74075;BME280;62428;51.412;5.432;2023-07-20T12:13:43;101351.75;;;22.56;50.98
74075;BME280;62428;51.412;5.432;2023-07-20T12:16:15;101342.66;;;22.52;49.38
74075;BME280;62428;51.412;5.432;2023-07-20T12:18:42;101350.72;;;22.45;48.03
74075;BME280;62428;51.412;5.432;2023-07-20T12:21:09;101347.81;;;22.38;48.45
74075;BME280;62428;51.412;5.432;2023-07-20T12:23:39;101341.34;;;22.26;49.08
74075;BME280;62428;51.412;5.432;2023-07-20T12:26:08;101342.69;;;22.17;49.33
74075;BME280;62428;51.412;5.432;2023-07-20T12:28:40;101345.53;;;22.04;50.07
74075;BME280;62428;51.412;5.432;2023-07-20T12:31:07;101345.31;;;21.94;50.84
74075;BME280;62428;51.412;5.432;2023-07-20T12:33:32;101349.03;;;21.85;50.31
74075;BME280;62428;51.412;5.432;2023-07-20T12:35:58;101341.81;;;21.77;51.33
74075;BME280;62428;51.412;5.432;2023-07-20T12:38:24;101338.13;;;21.69;51.66
74075;BME280;62428;51.412;5.432;2023-07-20T12:40:50;101346.16;;;21.62;51.96
74075;BME280;62428;51.412;5.432;2023-07-20T12:43:16;101341.78;;;21.58;52.33
74075;BME280;62428;51.412;5.432;2023-07-20T12:45:42;101347.06;;;21.50;52.09
74075;BME280;62428;51.412;5.432;2023-07-20T12:48:08;101339.13;;;21.45;52.77
74075;BME280;62428;51.412;5.432;2023-07-20T12:50:33;101338.66;;;21.43;52.62
74075;BME280;62428;51.412;5.432;2023-07-20T12:52:59;101336.28;;;21.42;51.55
74075;BME280;62428;51.412;5.432;2023-07-20T12:55:24;101341.75;;;21.42;51.62
74075;BME280;62428;51.412;5.432;2023-07-20T12:57:49;101337.41;;;21.41;52.06
74075;BME280;62428;51.412;5.432;2023-07-20T13:00:15;101330.03;;;21.41;52.97
74075;BME280;62428;51.412;5.432;2023-07-20T13:02:41;101332.03;;;21.44;52.85